Currently 58°F in Hemet, California, USA
58°F
58°F / 58°F
calm
0.00"
Monday, October 23, 2017 6:09 AM PDT

Hemet, California Weather Summary
Last 36 Hours

Temperature Winds Hourly Humidity Dewpoint
Time Report Norm Report Norm Max Gusts Precip. Rpt. Norm Rpt. Norm Pressure
1Mon 06:09 AM  57.6°F  59°F  calm  calm  none  0.00"  83%  51%  52°F  40°F  29.97"
Mon 06:00 AM  57.6°F  59°F  calm  1 mph  none  0.00"  83%  51%  52°F  40°F  29.97"
Mon 05:00 AM  57.6°F  59°F  calm  calm  none  0.00"  83%  51%  52°F  41°F  29.97"
Mon 04:00 AM  57.6°F  60°F  calm  1 mph  none  0.00"  83%  51%  52°F  41°F  29.97"
Mon 03:00 AM  57.6°F  60°F  calm  1 mph  none  0.00"  83%  51%  52°F  41°F  29.97"
Mon 02:00 AM  57.6°F  61°F  calm  1 mph  none  0.00"  83%  51%  52°F  42°F  29.97"
Mon 01:00 AM  57.6°F  61°F  calm  1 mph  none  0.00"  83%  51%  52°F  42°F  29.97"
2Mon 12:00 AM  57.6°F  62°F  calm  calm  none  0.00"  83%  51%  52°F  43°F  29.97"
Sun 11:00 PM  57.6°F  62°F  calm  calm  none  0.00"  83%  51%  52°F  43°F  29.97"
Sun 10:00 PM  57.6°F  63°F  calm  1 mph  none  0.00"  83%  50%  52°F  44°F  29.97"
Sun 09:00 PM  57.6°F  64°F  calm  calm  none  0.00"  83%  49%  52°F  44°F  29.97"
Sun 08:00 PM  57.6°F  66°F  calm  1 mph  none  0.00"  83%  48%  52°F  45°F  29.97"
Sun 07:00 PM  57.6°F  68°F  calm  1 mph  none  0.00"  83%  46%  52°F  46°F  29.97"
Sun 06:00 PM  57.6°F  72°F  calm  1 mph  none  0.00"  83%  41%  52°F  46°F  29.97"
Sun 05:00 PM  57.6°F  77°F  calm  2 mph  none  0.00"  83%  35%  52°F  46°F  29.97"
Sun 04:00 PM  57.6°F  79°F  calm  2 mph  none  0.00"  83%  33%  52°F  46°F  29.97"
Sun 03:00 PM  57.6°F  79°F  calm  2 mph  none  0.00"  83%  32%  52°F  46°F  29.97"
Sun 02:00 PM  57.6°F  78°F  calm  2 mph  none  0.00"  83%  33%  52°F  46°F  29.97"
Sun 01:00 PM  57.6°F  76°F  calm  1 mph  none  0.00"  83%  36%  52°F  46°F  29.97"
Sun 12:00 PM  57.6°F  74°F  calm  1 mph  none  0.00"  83%  39%  52°F  47°F  29.97"
Sun 11:00 AM  57.6°F  71°F  calm  1 mph  none  0.00"  83%  44%  52°F  47°F  29.97"
Sun 10:00 AM  57.6°F  68°F  calm  calm  none  0.00"  83%  49%  52°F  47°F  29.97"
Sun 09:00 AM  57.6°F  65°F  calm  calm  none  0.00"  83%  50%  52°F  46°F  29.97"
Sun 08:00 AM  57.6°F  61°F  calm  calm  none  0.00"  83%  53%  52°F  43°F  29.97"
Sun 07:00 AM  57.6°F  59°F  calm  calm  none  0.00"  83%  53%  52°F  41°F  29.97"
Sun 06:00 AM  57.6°F  59°F  calm  calm  none  0.00"  83%  52%  52°F  41°F  29.97"
Sun 05:00 AM  57.6°F  60°F  calm  calm  none  0.00"  83%  52%  52°F  42°F  29.97"
Sun 04:00 AM  57.6°F  60°F  calm  1 mph  none  0.00"  83%  52%  52°F  42°F  29.97"
Sun 03:00 AM  57.6°F  61°F  calm  calm  none  0.00"  83%  52%  52°F  42°F  29.97"
Sun 02:00 AM  57.6°F  61°F  calm  1 mph  none  0.00"  83%  52%  52°F  43°F  29.97"
Sun 01:00 AM  57.6°F  61°F  calm  calm  none  0.00"  83%  53%  52°F  43°F  29.97"
Sun 12:00 AM  57.6°F  62°F  calm  calm  none  0.00"  83%  53%  52°F  44°F  29.97"
Sat 11:00 PM  57.6°F  62°F  calm  calm  none  0.00"  83%  53%  52°F  44°F  29.97"
Sat 10:00 PM  57.6°F  63°F  calm  1 mph  none  0.00"  83%  52%  52°F  45°F  29.97"
Sat 09:00 PM  57.6°F  64°F  calm  calm  none  0.00"  83%  51%  52°F  45°F  29.97"
Sat 08:00 PM  57.6°F  66°F  calm  1 mph  none  0.00"  83%  49%  52°F  46°F  29.97"
Sat 07:00 PM  57.6°F  69°F  calm  1 mph  none  0.00"  83%  47%  52°F  47°F  29.97"

  1. Current weather data. No green row appears if the current weather data is also the high or low for the current day.
  2. High temperature for the current day.
  3. Low temperature for the current day.

The Hemet weather pages are a service of WeatherCurrents. Hemet, California is located in the San Jacinto Valley, in western Riverside County, at the foot of the San Jacinto mountains.
Copyright ©Mon Oct 23 06:10:36 PDT 2017  WeatherCurrents. All rights reserved. - Submit questions and comments - Privacy Policy

This page automatically refreshes every 10 minutes.